Time;durP1;ratioP1;P1;durP2;ratioP2;P2;SDS_P1;SDS_P2;PMS_P1;PMS_P2;Temp;Humidity;BMP_temperature;BMP_pressure;BME280_temperature;BME280_humidity;BME280_pressure;Samples;Min_cycle;Max_cycle;Signal;HPM_P1;HPM_P2
2023/01/29 00:00:40;;;;;;;19.23;14.43;;;;;;;;;;5015490;28;20252;-50
2023/01/29 00:03:06;;;;;;;17.83;13.53;;;;;;;;;;5015181;28;20715;-51
2023/01/29 00:05:34;;;;;;;19.00;14.20;;;;;;;;;;5015262;28;20445;-51
2023/01/29 00:08:00;;;;;;;19.63;15.30;;;;;;;;;;5015333;28;20448;-51
2023/01/29 00:10:26;;;;;;;20.30;14.97;;;;;;;;;;5015070;28;20439;-51
2023/01/29 00:12:52;;;;;;;17.93;14.77;;;;;;;;;;5015299;28;20433;-51
2023/01/29 00:15:19;;;;;;;19.50;14.60;;;;;;;;;;5015049;28;20440;-50
2023/01/29 00:17:46;;;;;;;16.93;14.30;;;;;;;;;;5015338;28;20643;-51
2023/01/29 00:20:12;;;;;;;20.00;13.77;;;;;;;;;;5015008;28;20451;-50
2023/01/29 00:22:38;;;;;;;19.23;14.37;;;;;;;;;;5015047;28;20476;-51
2023/01/29 00:25:05;;;;;;;17.03;14.47;;;;;;;;;;5014978;28;20429;-51
2023/01/29 00:27:31;;;;;;;18.53;14.47;;;;;;;;;;5015002;28;20202;-51
2023/01/29 00:30:11;;;;;;;19.40;15.10;;;;;;;;;;5015224;28;20434;-51
2023/01/29 00:32:37;;;;;;;17.13;13.77;;;;;;;;;;5014990;28;20256;-50
2023/01/29 00:35:05;;;;;;;18.60;14.30;;;;;;;;;;5014812;28;20432;-51
2023/01/29 00:37:31;;;;;;;18.33;14.47;;;;;;;;;;5012904;28;20942;-51
2023/01/29 00:39:57;;;;;;;19.13;15.47;;;;;;;;;;5014720;28;20433;-51
2023/01/29 00:45:09;;;;;;;20.77;15.40;;;;;;;;;;5015055;28;20851;-51
2023/01/29 00:47:35;;;;;;;19.00;14.90;;;;;;;;;;5014530;28;20492;-53
2023/01/29 00:50:01;;;;;;;18.67;14.33;;;;;;;;;;5014647;28;20452;-52
2023/01/29 00:52:29;;;;;;;22.13;14.90;;;;;;;;;;5014028;28;20495;-52
2023/01/29 00:54:56;;;;;;;20.23;15.60;;;;;;;;;;5014220;28;20443;-52
2023/01/29 00:57:22;;;;;;;18.07;14.17;;;;;;;;;;5014459;28;20772;-52
2023/01/29 00:59:48;;;;;;;20.13;15.23;;;;;;;;;;5014489;28;21025;-53
2023/01/29 01:05:01;;;;;;;21.90;15.67;;;;;;;;;;5014496;28;20607;-52
2023/01/29 01:07:28;;;;;;;20.30;15.43;;;;;;;;;;5014573;28;20433;-52
2023/01/29 01:12:39;;;;;;;20.63;15.50;;;;;;;;;;5014269;28;20503;-52
2023/01/29 01:15:05;;;;;;;20.53;16.10;;;;;;;;;;5014091;28;20451;-53
2023/01/29 01:17:31;;;;;;;20.70;15.93;;;;;;;;;;5013974;28;20888;-52
2023/01/29 01:19:57;;;;;;;19.97;15.90;;;;;;;;;;5014125;28;20432;-52
2023/01/29 01:22:23;;;;;;;20.83;15.77;;;;;;;;;;5013960;28;20436;-52
2023/01/29 01:24:51;;;;;;;20.97;15.70;;;;;;;;;;5014044;28;20575;-53
2023/01/29 01:27:18;;;;;;;21.90;16.17;;;;;;;;;;5014011;28;20216;-53
2023/01/29 01:29:44;;;;;;;20.37;15.63;;;;;;;;;;5014055;28;20444;-53
2023/01/29 01:32:10;;;;;;;21.20;16.40;;;;;;;;;;5013859;28;20932;-53
2023/01/29 01:34:36;;;;;;;21.93;16.27;;;;;;;;;;5013963;28;20444;-53
2023/01/29 01:37:02;;;;;;;22.00;17.03;;;;;;;;;;5013721;28;20202;-53
2023/01/29 01:39:28;;;;;;;23.23;17.33;;;;;;;;;;5014040;28;20487;-53
2023/01/29 01:41:55;;;;;;;24.10;17.30;;;;;;;;;;5013535;28;20990;-53
2023/01/29 01:44:40;;;;;;;21.23;16.33;;;;;;;;;;5013781;28;20233;-53
2023/01/29 01:47:06;;;;;;;23.20;16.07;;;;;;;;;;5013624;28;20486;-53
2023/01/29 01:49:32;;;;;;;20.83;16.53;;;;;;;;;;5013812;28;20445;-53
2023/01/29 01:51:59;;;;;;;20.43;16.23;;;;;;;;;;5013566;28;20555;-53
2023/01/29 01:54:28;;;;;;;22.23;16.80;;;;;;;;;;5013732;28;20942;-53
2023/01/29 01:57:08;;;;;;;20.93;16.53;;;;;;;;;;5013568;28;20437;-52
2023/01/29 01:59:34;;;;;;;21.40;16.83;;;;;;;;;;5013613;28;20444;-52
2023/01/29 02:10:18;;;;;;;21.67;16.10;;;;;;;;;;5013320;28;20471;-52
2023/01/29 02:12:45;;;;;;;21.93;16.07;;;;;;;;;;4995628;28;20908;-52
2023/01/29 02:15:11;;;;;;;20.60;16.23;;;;;;;;;;5013048;28;20939;-52
2023/01/29 02:17:37;;;;;;;19.73;16.70;;;;;;;;;;5012805;28;20511;-53
2023/01/29 02:20:07;;;;;;;20.90;15.63;;;;;;;;;;5012487;28;20440;-52
2023/01/29 02:22:46;;;;;;;23.17;17.47;;;;;;;;;;5012444;28;20457;-52
2023/01/29 02:25:21;;;;;;;21.83;16.43;;;;;;;;;;5012829;28;20440;-52
2023/01/29 02:28:11;;;;;;;20.97;16.63;;;;;;;;;;5012914;28;20459;-53
2023/01/29 02:30:39;;;;;;;22.13;17.83;;;;;;;;;;5012864;28;20479;-53
2023/01/29 02:33:09;;;;;;;21.80;16.70;;;;;;;;;;5012623;28;20809;-52
2023/01/29 02:38:42;;;;;;;22.50;16.60;;;;;;;;;;5012674;28;20394;-53
2023/01/29 02:41:13;;;;;;;20.97;16.07;;;;;;;;;;5012700;28;20547;-53
2023/01/29 02:43:42;;;;;;;25.77;17.37;;;;;;;;;;5012583;28;20484;-53
2023/01/29 02:46:14;;;;;;;20.90;16.37;;;;;;;;;;5012415;28;20480;-53
2023/01/29 02:48:44;;;;;;;19.80;16.43;;;;;;;;;;5012613;28;20524;-53
2023/01/29 02:51:13;;;;;;;21.80;16.10;;;;;;;;;;5012470;28;20512;-53
2023/01/29 02:53:44;;;;;;;21.27;16.67;;;;;;;;;;5012440;28;20490;-53
2023/01/29 02:56:11;;;;;;;21.33;16.40;;;;;;;;;;5012464;28;20842;-53
2023/01/29 02:58:41;;;;;;;22.07;16.73;;;;;;;;;;5012332;28;20468;-53
2023/01/29 03:01:10;;;;;;;22.57;15.83;;;;;;;;;;5012341;28;20425;-53
2023/01/29 03:03:40;;;;;;;21.27;16.90;;;;;;;;;;5012253;28;20484;-53
2023/01/29 03:06:07;;;;;;;21.73;17.27;;;;;;;;;;5012127;28;20495;-53
2023/01/29 03:08:36;;;;;;;25.43;17.67;;;;;;;;;;5012214;28;20447;-53
2023/01/29 03:11:03;;;;;;;22.17;16.90;;;;;;;;;;5012107;28;20446;-53
2023/01/29 03:13:34;;;;;;;21.33;17.00;;;;;;;;;;5012290;28;20451;-53
2023/01/29 03:16:01;;;;;;;21.20;16.80;;;;;;;;;;5011605;28;20926;-53
2023/01/29 03:18:31;;;;;;;21.33;16.90;;;;;;;;;;5012238;28;20464;-53
2023/01/29 03:20:59;;;;;;;20.27;16.33;;;;;;;;;;5011980;28;20449;-53
2023/01/29 03:34:34;;;;;;;23.50;17.30;;;;;;;;;;5012326;28;20858;-53
2023/01/29 03:37:03;;;;;;;20.77;16.07;;;;;;;;;;5011881;28;20445;-53
2023/01/29 03:39:29;;;;;;;20.60;16.43;;;;;;;;;;5012124;28;20432;-53
2023/01/29 03:41:57;;;;;;;23.63;17.13;;;;;;;;;;5011801;28;20453;-53
2023/01/29 03:44:27;;;;;;;21.03;16.50;;;;;;;;;;5011712;28;20479;-53
2023/01/29 03:46:55;;;;;;;23.87;17.47;;;;;;;;;;5011545;28;20468;-53
2023/01/29 03:49:23;;;;;;;23.00;17.03;;;;;;;;;;5011746;28;20511;-53
2023/01/29 03:51:55;;;;;;;25.37;18.03;;;;;;;;;;5011636;28;20444;-53
2023/01/29 03:54:25;;;;;;;25.00;18.00;;;;;;;;;;5011759;28;20449;-53
2023/01/29 03:56:56;;;;;;;23.67;16.90;;;;;;;;;;5011522;28;20875;-53
2023/01/29 03:59:25;;;;;;;22.40;17.77;;;;;;;;;;5011693;28;20488;-53
2023/01/29 04:01:53;;;;;;;23.80;17.83;;;;;;;;;;5011525;28;20484;-53
2023/01/29 04:04:22;;;;;;;24.63;17.47;;;;;;;;;;5011631;28;20665;-53
2023/01/29 04:06:49;;;;;;;26.17;18.07;;;;;;;;;;5011476;28;20446;-53
2023/01/29 04:09:22;;;;;;;23.63;17.67;;;;;;;;;;5011723;28;20528;-53
2023/01/29 04:11:49;;;;;;;24.50;17.30;;;;;;;;;;5011472;28;20439;-53
2023/01/29 04:14:16;;;;;;;22.73;17.03;;;;;;;;;;5011596;28;20441;-53
2023/01/29 04:16:46;;;;;;;23.03;17.10;;;;;;;;;;5011538;28;20451;-52
2023/01/29 04:19:12;;;;;;;24.67;18.37;;;;;;;;;;5011707;28;20885;-53
2023/01/29 04:21:39;;;;;;;25.90;18.93;;;;;;;;;;5011303;28;20459;-53
2023/01/29 04:24:06;;;;;;;23.93;17.83;;;;;;;;;;5011424;28;20480;-53
2023/01/29 04:26:39;;;;;;;25.50;17.43;;;;;;;;;;5011371;28;20954;-53
2023/01/29 04:29:15;;;;;;;22.37;16.33;;;;;;;;;;5015092;28;20457;-54
2023/01/29 04:31:43;;;;;;;22.83;17.33;;;;;;;;;;5015107;28;20431;-53
2023/01/29 04:34:15;;;;;;;22.33;17.10;;;;;;;;;;5014923;28;20447;-53
2023/01/29 04:36:43;;;;;;;22.73;15.80;;;;;;;;;;5014984;28;20535;-52
2023/01/29 04:39:14;;;;;;;20.73;15.50;;;;;;;;;;5015025;28;20456;-53
2023/01/29 04:41:44;;;;;;;20.47;16.37;;;;;;;;;;5014827;28;20951;-53
2023/01/29 04:44:13;;;;;;;21.43;15.90;;;;;;;;;;5014871;28;20523;-53
2023/01/29 04:46:46;;;;;;;19.10;14.97;;;;;;;;;;5014613;28;20515;-53
2023/01/29 04:49:18;;;;;;;19.77;14.77;;;;;;;;;;5014945;28;20440;-53
2023/01/29 04:51:49;;;;;;;19.83;15.13;;;;;;;;;;5014593;28;20951;-53
2023/01/29 04:54:19;;;;;;;20.53;15.00;;;;;;;;;;5014875;28;20436;-54
2023/01/29 04:56:50;;;;;;;20.77;16.00;;;;;;;;;;5014688;28;20446;-53
2023/01/29 04:59:19;;;;;;;21.73;15.90;;;;;;;;;;5014527;28;20859;-53
2023/01/29 05:01:46;;;;;;;20.37;14.60;;;;;;;;;;5014461;28;20449;-53
2023/01/29 05:04:13;;;;;;;21.97;15.57;;;;;;;;;;5014599;28;20479;-53
2023/01/29 05:06:39;;;;;;;20.83;16.43;;;;;;;;;;5014237;28;20444;-53
2023/01/29 05:09:05;;;;;;;22.37;15.97;;;;;;;;;;5014251;28;20443;-53
2023/01/29 05:11:32;;;;;;;18.97;14.67;;;;;;;;;;5014314;28;20432;-53
2023/01/29 05:14:01;;;;;;;20.97;15.50;;;;;;;;;;5014252;28;20911;-53
2023/01/29 05:16:29;;;;;;;19.30;14.73;;;;;;;;;;5014633;28;20453;-53
2023/01/29 05:18:55;;;;;;;19.27;14.33;;;;;;;;;;5014105;28;20806;-53
2023/01/29 05:21:22;;;;;;;19.70;14.70;;;;;;;;;;5014003;28;20440;-53
2023/01/29 05:24:03;;;;;;;18.53;14.00;;;;;;;;;;5013956;28;20601;-53
2023/01/29 05:29:16;;;;;;;20.87;15.50;;;;;;;;;;5014407;28;20790;-52
2023/01/29 05:31:43;;;;;;;19.63;15.47;;;;;;;;;;5013984;28;20494;-53
2023/01/29 05:34:09;;;;;;;19.37;13.80;;;;;;;;;;5013891;28;20988;-53
2023/01/29 05:36:35;;;;;;;20.80;15.33;;;;;;;;;;5013813;28;20456;-53
2023/01/29 05:39:01;;;;;;;20.80;14.33;;;;;;;;;;5013242;28;20263;-53
2023/01/29 05:41:27;;;;;;;21.97;15.97;;;;;;;;;;5013872;28;20476;-53
2023/01/29 05:43:53;;;;;;;19.80;14.50;;;;;;;;;;5013741;28;20608;-53
2023/01/29 05:46:20;;;;;;;18.40;15.00;;;;;;;;;;5013590;28;20280;-52
2023/01/29 05:48:46;;;;;;;19.07;14.47;;;;;;;;;;5013685;28;20198;-52
2023/01/29 05:51:12;;;;;;;20.10;15.37;;;;;;;;;;5013757;28;20949;-53
2023/01/29 05:53:38;;;;;;;19.60;14.73;;;;;;;;;;5013506;28;20251;-53
2023/01/29 05:56:05;;;;;;;22.30;15.67;;;;;;;;;;5013763;28;20201;-52
2023/01/29 05:58:31;;;;;;;21.70;15.73;;;;;;;;;;5013552;28;20480;-53
2023/01/29 06:00:57;;;;;;;23.87;15.73;;;;;;;;;;5013341;28;20502;-53
2023/01/29 06:03:24;;;;;;;21.77;16.20;;;;;;;;;;5013419;28;20472;-52
2023/01/29 06:05:50;;;;;;;19.47;15.70;;;;;;;;;;5013140;28;20202;-52
2023/01/29 06:08:16;;;;;;;20.97;15.67;;;;;;;;;;5013375;28;20436;-52
2023/01/29 06:10:42;;;;;;;22.53;15.40;;;;;;;;;;5013321;28;20444;-53
2023/01/29 06:13:08;;;;;;;21.27;15.00;;;;;;;;;;5013352;28;20648;-53
2023/01/29 06:15:34;;;;;;;20.10;14.60;;;;;;;;;;5013134;28;20288;-53
2023/01/29 06:18:00;;;;;;;21.83;15.20;;;;;;;;;;5013050;28;20208;-52
2023/01/29 06:20:27;;;;;;;22.20;15.60;;;;;;;;;;5012988;28;20738;-53
2023/01/29 06:22:53;;;;;;;22.33;16.50;;;;;;;;;;5013002;28;20201;-53
2023/01/29 06:25:19;;;;;;;24.37;16.30;;;;;;;;;;5013008;28;20440;-53
2023/01/29 06:27:45;;;;;;;22.00;15.63;;;;;;;;;;5013009;28;20506;-53
2023/01/29 06:30:12;;;;;;;23.80;16.80;;;;;;;;;;5013096;28;20268;-52
2023/01/29 06:32:38;;;;;;;20.80;15.93;;;;;;;;;;5012764;28;20567;-53
2023/01/29 06:35:04;;;;;;;19.93;14.83;;;;;;;;;;5012635;28;20449;-52
2023/01/29 06:37:31;;;;;;;19.17;14.73;;;;;;;;;;5012532;28;20205;-53
2023/01/29 06:39:57;;;;;;;22.13;17.10;;;;;;;;;;5012806;28;20939;-53
2023/01/29 06:42:26;;;;;;;22.67;16.90;;;;;;;;;;5012711;28;20447;-53
2023/01/29 06:44:52;;;;;;;23.43;16.90;;;;;;;;;;5012462;28;20229;-53
2023/01/29 06:47:18;;;;;;;24.17;16.83;;;;;;;;;;5012436;28;20472;-52
2023/01/29 06:49:44;;;;;;;23.67;17.97;;;;;;;;;;5012557;28;20446;-52
2023/01/29 06:52:10;;;;;;;25.10;18.60;;;;;;;;;;5011579;28;20190;-54
2023/01/29 06:54:37;;;;;;;24.33;17.30;;;;;;;;;;5012513;28;20308;-53
2023/01/29 06:57:03;;;;;;;25.03;18.30;;;;;;;;;;5012472;28;20451;-53
2023/01/29 06:59:29;;;;;;;23.50;17.13;;;;;;;;;;5012601;28;20440;-53
2023/01/29 07:01:55;;;;;;;26.40;19.23;;;;;;;;;;5012296;28;20663;-53
2023/01/29 07:04:21;;;;;;;24.67;18.13;;;;;;;;;;5012300;28;20236;-53
2023/01/29 07:06:47;;;;;;;25.50;18.13;;;;;;;;;;5012137;28;20647;-53
2023/01/29 07:09:14;;;;;;;26.77;18.70;;;;;;;;;;5012631;28;20197;-53
2023/01/29 07:11:41;;;;;;;28.40;19.67;;;;;;;;;;5012338;28;20206;-52
2023/01/29 07:14:07;;;;;;;30.13;19.40;;;;;;;;;;5012198;28;20436;-53
2023/01/29 07:16:33;;;;;;;27.83;19.70;;;;;;;;;;5012133;28;20452;-51
2023/01/29 07:18:59;;;;;;;27.57;19.03;;;;;;;;;;5012156;28;20441;-52
2023/01/29 07:21:25;;;;;;;31.60;21.23;;;;;;;;;;5012137;28;20443;-52
2023/01/29 07:23:51;;;;;;;29.87;20.63;;;;;;;;;;5011910;28;20232;-53
2023/01/29 07:26:17;;;;;;;29.80;20.70;;;;;;;;;;5012285;28;20437;-52
2023/01/29 07:28:44;;;;;;;33.97;22.33;;;;;;;;;;5012062;28;20931;-53
2023/01/29 07:31:12;;;;;;;29.00;21.47;;;;;;;;;;5011877;28;20448;-52
2023/01/29 07:33:38;;;;;;;38.37;23.27;;;;;;;;;;5011878;28;20441;-53
2023/01/29 07:36:07;;;;;;;35.20;23.20;;;;;;;;;;5011772;28;20443;-50
2023/01/29 07:38:33;;;;;;;35.70;23.97;;;;;;;;;;5011829;28;20440;-50
2023/01/29 07:40:59;;;;;;;37.47;24.47;;;;;;;;;;5011787;28;20469;-51
2023/01/29 07:43:25;;;;;;;38.87;25.37;;;;;;;;;;5011942;28;20236;-51
2023/01/29 07:45:52;;;;;;;53.53;31.47;;;;;;;;;;5011610;28;20756;-50
2023/01/29 07:48:18;;;;;;;34.63;23.97;;;;;;;;;;5011837;28;20452;-51
2023/01/29 07:50:44;;;;;;;39.53;25.07;;;;;;;;;;5011848;28;20467;-51
2023/01/29 07:53:13;;;;;;;37.33;25.17;;;;;;;;;;5011724;28;20762;-51
2023/01/29 07:55:39;;;;;;;39.43;25.87;;;;;;;;;;5011848;28;20435;-48
2023/01/29 07:58:05;;;;;;;42.00;26.43;;;;;;;;;;5011664;28;21013;-49
2023/01/29 08:00:31;;;;;;;39.93;25.03;;;;;;;;;;5011803;28;20198;-49
2023/01/29 08:03:03;;;;;;;38.83;24.87;;;;;;;;;;5013684;28;20288;-49
2023/01/29 08:05:29;;;;;;;38.10;24.00;;;;;;;;;;5015780;28;20941;-49
2023/01/29 08:07:55;;;;;;;41.23;24.93;;;;;;;;;;5015569;28;20436;-50
2023/01/29 08:10:21;;;;;;;34.97;23.80;;;;;;;;;;5015591;28;20854;-51
2023/01/29 08:12:47;;;;;;;39.53;23.60;;;;;;;;;;5015432;28;20528;-51
2023/01/29 08:15:13;;;;;;;40.20;24.73;;;;;;;;;;5015724;28;20475;-51
2023/01/29 08:17:39;;;;;;;37.20;25.30;;;;;;;;;;5015319;28;20807;-51
2023/01/29 08:20:07;;;;;;;35.67;24.20;;;;;;;;;;5015194;28;20858;-51
2023/01/29 08:22:33;;;;;;;37.93;24.03;;;;;;;;;;5015283;28;20476;-50
2023/01/29 08:24:59;;;;;;;35.53;24.27;;;;;;;;;;4997508;28;20513;-50
2023/01/29 08:27:25;;;;;;;36.90;24.37;;;;;;;;;;5015328;28;20463;-49
2023/01/29 08:29:51;;;;;;;39.60;25.33;;;;;;;;;;5015050;28;20884;-52
2023/01/29 08:32:17;;;;;;;37.87;25.93;;;;;;;;;;5015027;28;20209;-52
2023/01/29 08:34:43;;;;;;;39.33;24.70;;;;;;;;;;5015094;28;20245;-52
2023/01/29 08:37:11;;;;;;;38.53;26.20;;;;;;;;;;5015061;28;20197;-52
2023/01/29 08:39:36;;;;;;;37.10;25.17;;;;;;;;;;5015230;28;20245;-52
2023/01/29 08:42:03;;;;;;;38.00;24.63;;;;;;;;;;5015109;28;20488;-51
2023/01/29 08:44:29;;;;;;;33.80;23.77;;;;;;;;;;5015174;28;20230;-52
2023/01/29 08:46:55;;;;;;;34.87;23.60;;;;;;;;;;5014450;28;21049;-51
2023/01/29 08:49:21;;;;;;;38.10;25.53;;;;;;;;;;5012731;28;20582;-51
2023/01/29 08:51:47;;;;;;;35.20;24.70;;;;;;;;;;5014553;28;20527;-51
2023/01/29 08:54:14;;;;;;;36.07;24.13;;;;;;;;;;5014556;28;20280;-51
2023/01/29 08:56:40;;;;;;;32.33;22.70;;;;;;;;;;5014385;28;20444;-50
2023/01/29 08:59:06;;;;;;;34.47;23.53;;;;;;;;;;5014116;28;20484;-50
2023/01/29 09:01:32;;;;;;;34.10;24.50;;;;;;;;;;5014390;28;20209;-51
2023/01/29 09:03:58;;;;;;;34.07;23.37;;;;;;;;;;5014206;28;20221;-50
2023/01/29 09:06:24;;;;;;;33.27;23.03;;;;;;;;;;5014182;28;20194;-50
2023/01/29 09:08:50;;;;;;;30.43;23.07;;;;;;;;;;5014308;28;20443;-51
2023/01/29 09:11:17;;;;;;;37.73;23.63;;;;;;;;;;5014049;28;20504;-50
2023/01/29 09:13:43;;;;;;;36.83;24.20;;;;;;;;;;5013245;28;20703;-51
2023/01/29 09:16:09;;;;;;;34.30;23.50;;;;;;;;;;5014260;28;20472;-51
2023/01/29 09:18:36;;;;;;;32.90;22.83;;;;;;;;;;5014050;28;20440;-51
2023/01/29 09:21:02;;;;;;;32.57;23.53;;;;;;;;;;5014062;28;20487;-50
2023/01/29 09:23:29;;;;;;;33.87;23.60;;;;;;;;;;5014077;28;20482;-50
2023/01/29 09:25:55;;;;;;;38.23;26.37;;;;;;;;;;5013953;28;20495;-51
2023/01/29 09:28:22;;;;;;;33.13;23.23;;;;;;;;;;5013837;28;20433;-51
2023/01/29 09:30:49;;;;;;;31.97;22.70;;;;;;;;;;5013730;28;20435;-49
2023/01/29 09:33:14;;;;;;;35.10;23.90;;;;;;;;;;5013720;28;20463;-50
2023/01/29 09:35:41;;;;;;;33.17;22.83;;;;;;;;;;5013651;28;20865;-51
2023/01/29 09:38:07;;;;;;;30.93;22.07;;;;;;;;;;5013533;28;20229;-52
2023/01/29 09:40:36;;;;;;;32.20;23.87;;;;;;;;;;5013539;28;20452;-51
2023/01/29 09:43:04;;;;;;;34.07;23.57;;;;;;;;;;5013244;28;20484;-52
2023/01/29 09:45:32;;;;;;;30.03;22.47;;;;;;;;;;5013524;28;20437;-51
2023/01/29 09:48:00;;;;;;;31.77;22.70;;;;;;;;;;5013454;28;20816;-51
2023/01/29 09:50:28;;;;;;;33.67;22.47;;;;;;;;;;5013376;28;20925;-52
2023/01/29 09:52:57;;;;;;;28.57;20.73;;;;;;;;;;5013272;28;20455;-50
2023/01/29 09:55:25;;;;;;;32.10;21.97;;;;;;;;;;5013667;28;20444;-50
2023/01/29 09:57:52;;;;;;;32.33;23.10;;;;;;;;;;5013222;28;20463;-51
2023/01/29 10:00:21;;;;;;;31.20;22.23;;;;;;;;;;5013274;28;20460;-51
2023/01/29 10:03:02;;;;;;;28.30;20.53;;;;;;;;;;5013208;28;20441;-51
2023/01/29 10:05:36;;;;;;;36.30;24.60;;;;;;;;;;5010031;28;20809;-51
2023/01/29 10:08:12;;;;;;;32.33;22.23;;;;;;;;;;5013249;28;20464;-51
2023/01/29 10:10:44;;;;;;;31.53;22.33;;;;;;;;;;5013090;28;20526;-50
2023/01/29 10:13:15;;;;;;;31.17;22.17;;;;;;;;;;5012986;28;21026;-51
2023/01/29 10:15:48;;;;;;;29.30;21.67;;;;;;;;;;5013080;28;20440;-51
2023/01/29 10:18:26;;;;;;;30.17;21.33;;;;;;;;;;5012931;28;21016;-51
2023/01/29 10:20:58;;;;;;;31.17;22.00;;;;;;;;;;5012738;28;20527;-51
2023/01/29 10:23:26;;;;;;;32.30;21.27;;;;;;;;;;5012720;28;20473;-50
2023/01/29 10:25:53;;;;;;;28.47;20.20;;;;;;;;;;5012632;28;20524;-51
2023/01/29 10:28:21;;;;;;;27.80;19.30;;;;;;;;;;5012678;28;20476;-51
2023/01/29 10:30:50;;;;;;;26.90;19.73;;;;;;;;;;5012719;28;20432;-51
2023/01/29 10:33:24;;;;;;;27.47;18.57;;;;;;;;;;5012681;28;20946;-51
2023/01/29 10:35:53;;;;;;;26.63;18.33;;;;;;;;;;5012521;28;20466;-51
2023/01/29 10:38:25;;;;;;;25.27;16.93;;;;;;;;;;5012530;28;20494;-51
2023/01/29 10:40:55;;;;;;;20.10;15.33;;;;;;;;;;5012326;28;20461;-51
2023/01/29 10:43:26;;;;;;;21.37;16.50;;;;;;;;;;5012391;28;20484;-50
2023/01/29 10:45:56;;;;;;;22.70;16.97;;;;;;;;;;5012285;28;20508;-51
2023/01/29 10:48:33;;;;;;;25.53;17.83;;;;;;;;;;5012498;28;20455;-50
2023/01/29 10:51:04;;;;;;;22.13;16.90;;;;;;;;;;5012449;28;20454;-51
2023/01/29 10:53:38;;;;;;;22.27;16.40;;;;;;;;;;5012598;28;20433;-52
2023/01/29 10:56:11;;;;;;;26.70;18.37;;;;;;;;;;5012273;28;20448;-51
2023/01/29 10:58:40;;;;;;;27.13;18.90;;;;;;;;;;5012350;28;20453;-51
2023/01/29 11:01:06;;;;;;;25.07;18.70;;;;;;;;;;5012088;28;20775;-50
2023/01/29 11:03:33;;;;;;;25.23;18.00;;;;;;;;;;5012163;28;20483;-52
2023/01/29 11:06:03;;;;;;;25.67;18.97;;;;;;;;;;5012231;28;20208;-52
2023/01/29 11:08:32;;;;;;;26.10;18.37;;;;;;;;;;5012298;28;20449;-52
2023/01/29 11:11:03;;;;;;;26.47;17.63;;;;;;;;;;5012288;28;20441;-51
2023/01/29 11:13:30;;;;;;;24.50;17.47;;;;;;;;;;5012256;28;20443;-51
2023/01/29 11:15:56;;;;;;;24.70;18.03;;;;;;;;;;5012046;28;20497;-51
2023/01/29 11:18:22;;;;;;;25.10;17.47;;;;;;;;;;5011886;28;20440;-51
2023/01/29 11:20:59;;;;;;;24.47;16.47;;;;;;;;;;5011623;28;20288;-51
2023/01/29 11:23:27;;;;;;;23.73;17.27;;;;;;;;;;5011885;28;20476;-51
2023/01/29 11:25:53;;;;;;;20.50;15.73;;;;;;;;;;5011785;28;20775;-52
2023/01/29 11:31:20;;;;;;;24.10;16.83;;;;;;;;;;5109426;27;20553;-51
2023/01/29 11:33:46;;;;;;;23.53;16.40;;;;;;;;;;5109195;28;20436;-53
2023/01/29 11:36:37;;;;;;;24.47;16.70;;;;;;;;;;5109223;28;20432;-53
2023/01/29 11:39:13;;;;;;;26.37;17.47;;;;;;;;;;5098392;28;20460;-53
2023/01/29 11:41:43;;;;;;;24.90;18.07;;;;;;;;;;5108855;28;20460;-52
2023/01/29 11:44:17;;;;;;;27.37;19.13;;;;;;;;;;5108847;28;20439;-52
2023/01/29 11:46:45;;;;;;;27.50;19.30;;;;;;;;;;5109068;28;20442;-53
2023/01/29 11:49:15;;;;;;;25.83;19.00;;;;;;;;;;5108733;28;20911;-53
2023/01/29 11:51:41;;;;;;;26.10;17.83;;;;;;;;;;5108785;28;20930;-53
2023/01/29 11:54:14;;;;;;;24.87;17.90;;;;;;;;;;5108674;28;20500;-53
2023/01/29 11:56:41;;;;;;;28.17;17.40;;;;;;;;;;5108680;28;20652;-53
2023/01/29 11:59:21;;;;;;;26.37;18.37;;;;;;;;;;5108468;28;20432;-51
2023/01/29 12:01:48;;;;;;;24.87;18.23;;;;;;;;;;5108546;28;20431;-51
2023/01/29 12:04:17;;;;;;;25.20;18.53;;;;;;;;;;5108580;28;20458;-51
2023/01/29 12:06:46;;;;;;;23.90;18.30;;;;;;;;;;5108612;28;20444;-51
2023/01/29 12:09:16;;;;;;;24.50;18.33;;;;;;;;;;5108385;28;20476;-51
2023/01/29 12:11:42;;;;;;;24.90;17.00;;;;;;;;;;5108589;28;20477;-51
2023/01/29 12:14:21;;;;;;;21.40;16.10;;;;;;;;;;5108302;28;20456;-52
2023/01/29 12:16:52;;;;;;;25.40;15.87;;;;;;;;;;5108304;28;20221;-51
2023/01/29 12:19:25;;;;;;;23.23;16.43;;;;;;;;;;5108133;28;20494;-51
2023/01/29 12:21:54;;;;;;;25.57;17.57;;;;;;;;;;5108290;28;20420;-53
2023/01/29 12:24:33;;;;;;;22.57;15.87;;;;;;;;;;5108291;28;20448;-52
2023/01/29 12:27:01;;;;;;;21.87;15.83;;;;;;;;;;5108191;28;20803;-52
2023/01/29 12:29:33;;;;;;;20.77;14.97;;;;;;;;;;5107936;28;20543;-52
2023/01/29 12:32:04;;;;;;;21.40;15.83;;;;;;;;;;5108007;28;20846;-53
2023/01/29 12:34:34;;;;;;;23.90;16.67;;;;;;;;;;5108161;28;20954;-52
2023/01/29 12:37:03;;;;;;;22.60;17.40;;;;;;;;;;5108006;28;20447;-51
2023/01/29 12:39:31;;;;;;;24.23;17.90;;;;;;;;;;5108071;28;20436;-51
2023/01/29 12:41:59;;;;;;;22.13;15.97;;;;;;;;;;5097582;28;20449;-52
2023/01/29 12:44:28;;;;;;;23.10;16.63;;;;;;;;;;5094165;28;20448;-52
2023/01/29 12:46:56;;;;;;;21.97;16.10;;;;;;;;;;5094332;28;20490;-52
2023/01/29 12:49:25;;;;;;;25.13;17.87;;;;;;;;;;5094129;28;20472;-52
2023/01/29 12:51:55;;;;;;;26.13;19.43;;;;;;;;;;5093980;28;20468;-52
2023/01/29 12:54:22;;;;;;;25.50;17.57;;;;;;;;;;5093939;28;20437;-52
2023/01/29 12:56:50;;;;;;;27.07;18.13;;;;;;;;;;5093957;28;20484;-51
2023/01/29 12:59:18;;;;;;;25.17;17.43;;;;;;;;;;5093967;28;20452;-51
2023/01/29 13:01:46;;;;;;;19.90;15.17;;;;;;;;;;5094007;28;20527;-51
2023/01/29 13:04:15;;;;;;;26.20;17.47;;;;;;;;;;5093882;28;20433;-51
2023/01/29 13:06:44;;;;;;;23.67;17.80;;;;;;;;;;5094027;28;20486;-51
2023/01/29 13:09:13;;;;;;;25.67;18.30;;;;;;;;;;5093573;28;21158;-52
2023/01/29 13:11:40;;;;;;;24.70;16.87;;;;;;;;;;5093734;28;20455;-51
2023/01/29 13:14:08;;;;;;;23.70;17.10;;;;;;;;;;5093828;28;20437;-51
2023/01/29 13:16:37;;;;;;;22.63;16.93;;;;;;;;;;5093685;28;20483;-51
2023/01/29 13:19:04;;;;;;;25.33;18.70;;;;;;;;;;5093495;28;20816;-52
2023/01/29 13:21:33;;;;;;;24.03;18.67;;;;;;;;;;5093665;28;20527;-51
2023/01/29 13:24:02;;;;;;;25.00;17.97;;;;;;;;;;5093566;28;20447;-51
2023/01/29 13:26:29;;;;;;;22.50;17.07;;;;;;;;;;5093612;28;20432;-52
2023/01/29 13:28:55;;;;;;;26.93;18.63;;;;;;;;;;5093176;28;20436;-51
2023/01/29 13:31:30;;;;;;;26.00;18.30;;;;;;;;;;5093585;28;20433;-53
2023/01/29 13:34:00;;;;;;;28.43;19.37;;;;;;;;;;5093260;28;20428;-51
2023/01/29 13:36:28;;;;;;;23.90;17.10;;;;;;;;;;5093441;28;20441;-52
2023/01/29 13:38:57;;;;;;;24.67;17.70;;;;;;;;;;5093098;28;20441;-52
2023/01/29 13:41:32;;;;;;;25.17;16.93;;;;;;;;;;5092958;28;20463;-53
2023/01/29 13:43:58;;;;;;;22.67;16.23;;;;;;;;;;5093181;28;20842;-51
2023/01/29 13:46:24;;;;;;;22.60;16.53;;;;;;;;;;5093046;28;20524;-52
2023/01/29 13:48:53;;;;;;;24.63;17.87;;;;;;;;;;5093058;28;20433;-52
2023/01/29 13:51:20;;;;;;;25.17;18.10;;;;;;;;;;5092814;28;20508;-52
2023/01/29 13:53:52;;;;;;;24.97;17.47;;;;;;;;;;5091955;28;20471;-52
2023/01/29 13:56:42;;;;;;;26.33;17.00;;;;;;;;;;5092904;28;20532;-52
2023/01/29 13:59:20;;;;;;;24.67;18.83;;;;;;;;;;5092702;28;20437;-52
2023/01/29 14:02:01;;;;;;;22.27;16.40;;;;;;;;;;5092981;28;20437;-51
2023/01/29 14:04:28;;;;;;;26.27;17.63;;;;;;;;;;5092850;28;20823;-53
2023/01/29 14:06:55;;;;;;;23.87;16.40;;;;;;;;;;5092574;28;20837;-52
2023/01/29 14:09:54;;;;;;;24.43;17.40;;;;;;;;;;5092620;28;20488;-53
2023/01/29 14:12:39;;;;;;;25.87;16.87;;;;;;;;;;5092389;28;20455;-51
2023/01/29 14:15:15;;;;;;;23.63;16.60;;;;;;;;;;5092378;28;20449;-52
2023/01/29 14:17:53;;;;;;;21.83;16.47;;;;;;;;;;5092532;28;20433;-52
2023/01/29 14:20:20;;;;;;;23.53;17.23;;;;;;;;;;5092303;28;21092;-52
2023/01/29 14:22:53;;;;;;;23.27;17.00;;;;;;;;;;5092450;28;20433;-52
2023/01/29 14:25:20;;;;;;;20.20;14.60;;;;;;;;;;5092493;28;20453;-52
2023/01/29 14:27:48;;;;;;;24.73;17.23;;;;;;;;;;5092543;28;20456;-52
2023/01/29 14:30:16;;;;;;;33.37;21.97;;;;;;;;;;5092195;28;20492;-51
2023/01/29 14:32:46;;;;;;;40.93;28.57;;;;;;;;;;5092399;28;20445;-51
2023/01/29 14:35:17;;;;;;;24.97;18.80;;;;;;;;;;5092301;28;20440;-52
2023/01/29 14:37:45;;;;;;;26.40;19.63;;;;;;;;;;5092396;28;20439;-51
2023/01/29 14:40:18;;;;;;;27.90;18.77;;;;;;;;;;5091947;28;20920;-51
2023/01/29 14:42:51;;;;;;;27.33;18.90;;;;;;;;;;5088538;28;20421;-51
2023/01/29 14:45:26;;;;;;;28.90;19.60;;;;;;;;;;5091804;28;20490;-51
2023/01/29 14:47:56;;;;;;;26.33;19.73;;;;;;;;;;5092018;28;20444;-52
2023/01/29 14:50:40;;;;;;;32.03;21.40;;;;;;;;;;5091923;28;20526;-52
2023/01/29 14:53:10;;;;;;;28.73;21.47;;;;;;;;;;5091803;28;20517;-52
2023/01/29 14:55:37;;;;;;;29.57;20.90;;;;;;;;;;5091958;28;20421;-51
2023/01/29 14:58:04;;;;;;;29.43;20.77;;;;;;;;;;5091588;28;20519;-51
2023/01/29 15:00:34;;;;;;;31.63;20.70;;;;;;;;;;5091948;28;20444;-52